• Join FlightAware (Why Join?)
  • Login
  • US Flag 
12:22PM EDT


 

Airport Tracker/Info


-or-


 

Live Flight TrackerFlight Track Log ✈ N2BA ✈ 22-Jun-2013 ✈ KMSY - KPNS

Flight Track Log - Related Links

Times and Time Zones

All times are in EDT time to prevent confusion due to time zone crossing. See the N2BA flight status page for this flight to view local times or setup timezone preferences in your user account.

Time Position Orientation Groundspeed Altitude Reporting Facility
EDT Latitude Longitude Course Direction KTS MPH feet Rate Location/Type
06:38PM 29.9869 -90.2392 102° East 167 192 2,300  Level Houston Center
06:38PM 29.9808 -90.2081 103° East 171 197 4,500 3,720 Climbing Houston Center
06:39PM 29.9806 -90.1786 91° East 225 259 6,200 3,540 Climbing Houston Center
06:40PM 29.9911 -90.0983 81° East 251 289 10,000 3,180 Climbing Houston Center
06:41PM 30.0000 -90.0006 84° East 302 348 12,800 3,600 Climbing Houston Center
06:42PM 30.0197 -89.8956 78° East 336 387 17,500 3,600 Climbing Houston Center
06:43PM 30.0469 -89.7683 76° East 347 399 20,300 2,220 Climbing Houston Center
06:44PM 30.0669 -89.6439 79° East 395 455 22,100 1,260 Climbing Houston Center
06:45PM 30.0894 -89.5147 79° East 414 476 23,000 420 Climbing Houston Center
06:46PM 30.1156 -89.3728 78° East 451 519 23,000  Level Houston Center
06:47PM 30.1414 -89.2297 78° East 457 526 23,000  Level Houston Center
06:48PM 30.1664 -89.0856 79° East 458 527 23,000  Level Houston Center
06:49PM 30.1919 -88.9192 80° East 455 524 23,000  Level Houston Center
06:50PM 30.2167 -88.7756 79° East 457 526 23,000  Level Houston Center
06:51PM 30.2419 -88.6328 78° East 456 525 23,000  Level Houston Center
06:52PM 30.2647 -88.4894 80° East 457 526 23,000 -1,260 Level Houston Center
06:53PM 30.2881 -88.3425 80° East 467 537 20,500 -2,460 Descending Houston Center
06:54PM 30.3164 -88.1642 80° East 473 544 18,000 -2,760 Descending Houston Center
06:55PM 30.3422 -88.0228 78° East 461 531 14,900 -1,920 Descending Houston Center
06:56PM 30.3828 -87.9006 69° East 415 478 14,100 -1,080 Descending Houston Center
06:57PM 30.4022 -87.7869 79° East 366 421 12,800 -1,320 Descending Houston Center
06:58PM 30.4328 -87.6900 70° East 341 392 11,400 -1,920 Descending Houston Center
06:59PM 30.4319 -87.5964 91° East 295 339 8,900 -2,760 Descending Houston Center
07:00PM 30.4286 -87.5250 93° East 274 315 6,800 -2,700 Descending Jacksonville Center
07:01PM 30.4317 -87.4408 88° East 266 306 4,400 -1,620 Descending Jacksonville Center
07:02PM 30.4383 -87.3689 84° East 202 232 3,600 -1,140 Descending Jacksonville Center
07:03PM 30.4486 -87.3139 78° East 159 183 2,200 -1,200 Descending Jacksonville Center
07:04PM 30.4586 -87.2708 75° East 134 154 1,200 -780 Descending Jacksonville Center
07:05PM 30.4642 -87.2303 81° East 133 153 700 -540 Descending Jacksonville Center